Time;durP1;ratioP1;P1;durP2;ratioP2;P2;SDS_P1;SDS_P2;PMS_P1;PMS_P2;Temp;Humidity;BMP_temperature;BMP_pressure;BME280_temperature;BME280_humidity;BME280_pressure;Samples;Min_cycle;Max_cycle;Signal;HPM_P1;HPM_P2
2022/09/19 00:01:10;;;;;;;0.60;0.60;;;;;;;11.45;89.35;99402.06;5090665;28;20216;-62
2022/09/19 00:03:37;;;;;;;0.40;0.40;;;;;;;11.47;89.38;99407.16;5091194;28;20199;-62
2022/09/19 00:06:04;;;;;;;0.50;0.50;;;;;;;11.42;89.29;99404.72;5090481;28;20199;-62
2022/09/19 00:08:31;;;;;;;0.50;0.50;;;;;;;11.41;89.48;99405.59;5090214;28;20629;-62
2022/09/19 00:11:02;;;;;;;0.50;0.50;;;;;;;11.38;90.16;99398.00;5090235;28;19920;-62
2022/09/19 00:13:28;;;;;;;0.50;0.50;;;;;;;11.27;90.81;99405.25;5091228;28;20276;-62
2022/09/19 00:15:57;;;;;;;0.50;0.50;;;;;;;11.22;90.73;99399.41;5090937;28;20210;-61
2022/09/19 00:18:24;;;;;;;0.50;0.50;;;;;;;11.07;91.36;99392.22;5090890;28;20246;-62
2022/09/19 00:20:50;;;;;;;0.50;0.50;;;;;;;11.07;91.87;99399.91;5090822;28;20195;-61
2022/09/19 00:26:04;;;;;;;0.40;0.40;;;;;;;11.05;93.28;99399.94;5091200;28;20252;-61
2022/09/19 00:28:31;;;;;;;0.60;0.60;;;;;;;11.13;93.73;99411.69;5089062;28;20210;-61
2022/09/19 00:31:00;;;;;;;0.40;0.40;;;;;;;11.17;94.27;99413.28;5091242;28;20269;-62
2022/09/19 00:33:30;;;;;;;0.40;0.40;;;;;;;11.12;94.29;99410.84;5090682;28;20231;-61
2022/09/19 00:35:57;;;;;;;0.40;0.40;;;;;;;11.09;94.22;99405.81;5090980;28;20200;-62
2022/09/19 00:38:25;;;;;;;0.40;0.40;;;;;;;11.03;93.45;99406.03;5090944;28;20195;-62
2022/09/19 00:40:53;;;;;;;0.40;0.40;;;;;;;11.03;93.45;99411.16;5091561;28;20203;-62
2022/09/19 00:43:21;;;;;;;;;;;;;;;11.05;92.51;99411.94;5090890;28;20178;-62
2022/09/19 00:45:48;;;;;;;;;;;;;;;10.98;92.30;99407.91;5091363;28;19924;-62
2022/09/19 00:48:17;;;;;;;;;;;;;;;10.99;91.94;99401.88;5090069;28;19923;-62
2022/09/19 00:50:45;;;;;;;;;;;;;;;11.06;91.06;99405.91;5091058;28;20388;-62
2022/09/19 00:53:14;;;;;;;;;;;;;;;11.07;90.85;99402.47;5090415;28;19928;-63
2022/09/19 00:55:41;;;;;;;;;;;;;;;11.08;90.41;99396.47;5088528;28;20021;-62
2022/09/19 00:58:15;;;;;;;0.50;0.50;;;;;;;11.14;90.26;99410.81;5090718;28;19932;-63
2022/09/19 01:00:42;;;;;;;0.40;0.40;;;;;;;11.15;89.52;99400.50;5090553;28;20733;-62
2022/09/19 01:03:09;;;;;;;0.50;0.50;;;;;;;11.23;89.28;99406.22;5088684;28;20219;-62
2022/09/19 01:05:55;;;;;;;;;;;;;;;11.27;89.13;99401.84;5089740;28;20191;-62
2022/09/19 01:08:48;;;;;;;0.50;0.50;;;;;;;11.24;88.39;99381.41;5090517;28;19924;-61
2022/09/19 01:11:38;;;;;;;0.50;0.50;;;;;;;11.29;88.01;99388.06;5083961;28;20200;-62
2022/09/19 01:14:14;;;;;;;0.50;0.50;;;;;;;11.26;86.61;99385.59;5089970;28;19927;-62
2022/09/19 01:16:42;;;;;;;;;;;;;;;11.23;85.86;99393.41;5088489;28;20033;-62
2022/09/19 01:19:46;;;;;;;0.50;0.50;;;;;;;11.28;86.07;99393.22;5084203;28;19921;-62
2022/09/19 01:22:23;;;;;;;0.47;0.47;;;;;;;11.38;86.20;99403.16;5089939;28;20207;-62
2022/09/19 01:24:59;;;;;;;0.40;0.40;;;;;;;11.45;84.50;99394.34;5090437;28;20195;-63
2022/09/19 01:27:55;;;;;;;0.50;0.50;;;;;;;11.53;83.76;99402.63;5090072;28;20747;-62
2022/09/19 01:30:23;;;;;;;0.60;0.60;;;;;;;11.62;84.58;99393.78;5080842;28;20208;-62
2022/09/19 01:32:55;;;;;;;0.40;0.40;;;;;;;11.69;84.76;99402.97;5090329;28;20690;-62
2022/09/19 01:35:28;;;;;;;0.50;0.50;;;;;;;11.73;83.97;99393.47;5090026;28;20861;-62
2022/09/19 01:38:00;;;;;;;0.40;0.40;;;;;;;11.76;82.61;99396.72;5090286;28;20200;-62
2022/09/19 01:40:27;;;;;;;0.40;0.40;;;;;;;11.81;83.36;99401.72;5089887;28;20287;-62
2022/09/19 01:42:56;;;;;;;0.57;0.57;;;;;;;11.80;83.06;99400.88;5090012;28;20230;-61
2022/09/19 01:45:30;;;;;;;0.50;0.50;;;;;;;11.79;83.87;99395.81;5089935;28;20203;-61
2022/09/19 01:48:09;;;;;;;0.40;0.40;;;;;;;11.76;83.87;99390.78;5089783;28;20290;-62
2022/09/19 01:50:49;;;;;;;0.50;0.50;;;;;;;11.78;83.95;99391.56;5089676;28;20198;-62
2022/09/19 01:53:31;;;;;;;0.50;0.50;;;;;;;11.76;83.24;99398.47;5090355;28;20203;-61
2022/09/19 01:56:06;;;;;;;0.50;0.50;;;;;;;11.65;83.23;99382.56;5089897;28;20195;-62
2022/09/19 01:58:41;;;;;;;0.40;0.40;;;;;;;11.72;83.00;99400.31;5085622;28;20571;-62
2022/09/19 02:01:19;;;;;;;0.40;0.40;;;;;;;11.68;83.29;99396.13;5088730;28;20293;-61
2022/09/19 02:03:51;;;;;;;0.60;0.60;;;;;;;11.69;83.67;99394.41;5089790;28;20683;-63
2022/09/19 02:06:28;;;;;;;0.40;0.40;;;;;;;11.74;83.49;99395.09;5088412;28;20210;-61
2022/09/19 02:09:03;;;;;;;0.43;0.43;;;;;;;11.73;83.08;99390.88;5089848;28;20205;-62
2022/09/19 02:11:31;;;;;;;0.40;0.40;;;;;;;11.75;82.80;99397.63;5086423;28;20663;-62
2022/09/19 02:14:03;;;;;;;0.40;0.40;;;;;;;11.68;82.14;99400.44;5089303;28;20228;-62
2022/09/19 02:16:36;;;;;;;0.40;0.40;;;;;;;11.57;82.97;99387.94;5089833;28;20582;-61
2022/09/19 02:19:08;;;;;;;0.40;0.40;;;;;;;11.65;82.80;99385.13;5088127;28;20286;-62
2022/09/19 02:21:41;;;;;;;0.40;0.40;;;;;;;11.68;83.26;99400.44;5087980;28;20187;-62
2022/09/19 02:24:14;;;;;;;0.43;0.43;;;;;;;11.75;82.60;99413.06;5089615;28;20191;-62
2022/09/19 02:26:43;;;;;;;1.23;1.23;;;;;;;11.75;82.92;99401.94;5090222;28;20548;-61
2022/09/19 02:29:17;;;;;;;0.40;0.40;;;;;;;11.77;83.01;99402.69;5089204;28;20663;-61
2022/09/19 02:31:46;;;;;;;0.50;0.50;;;;;;;11.77;82.44;99405.28;5093639;28;20203;-62
2022/09/19 02:34:13;;;;;;;2.90;2.80;;;;;;;11.78;82.41;99406.97;5092908;28;20214;-62
2022/09/19 02:36:46;;;;;;;0.60;0.60;;;;;;;11.76;82.16;99403.63;5094000;28;20248;-61
2022/09/19 02:39:20;;;;;;;0.40;0.40;;;;;;;11.72;82.45;99396.91;5092887;28;20274;-62
2022/09/19 02:41:56;;;;;;;0.50;0.50;;;;;;;11.62;82.94;99408.34;5089868;28;20683;-61
2022/09/19 02:44:30;;;;;;;0.40;0.40;;;;;;;11.50;83.21;99407.84;5092776;28;20637;-62
2022/09/19 02:47:07;;;;;;;0.70;0.70;;;;;;;11.24;83.57;99384.81;5090786;28;20659;-61
2022/09/19 02:49:42;;;;;;;0.40;0.40;;;;;;;11.17;84.35;99398.72;5092955;28;20199;-61
2022/09/19 02:52:16;;;;;;;0.55;0.55;;;;;;;10.99;84.97;99404.44;5093567;28;19928;-62
2022/09/19 02:54:47;;;;;;;0.40;0.40;;;;;;;10.84;86.33;99410.91;5087802;28;19924;-62
2022/09/19 02:57:17;;;;;;;0.47;0.47;;;;;;;10.61;86.94;99387.69;5091214;28;20207;-62
2022/09/19 02:59:50;;;;;;;0.40;0.40;;;;;;;10.62;87.51;99409.03;5089747;28;20227;-62
2022/09/19 03:02:23;;;;;;;0.53;0.53;;;;;;;10.53;88.15;99403.28;5091382;28;20211;-62
2022/09/19 03:04:56;;;;;;;0.50;0.50;;;;;;;10.53;88.43;99405.84;5092999;28;20202;-62
2022/09/19 03:07:27;;;;;;;0.50;0.50;;;;;;;10.39;88.82;99392.63;5092460;28;20217;-62
2022/09/19 03:10:00;;;;;;;0.40;0.40;;;;;;;10.44;89.04;99400.16;5093109;28;20211;-61
2022/09/19 03:12:37;;;;;;;0.50;0.50;;;;;;;10.49;88.72;99404.28;5092939;28;20707;-61
2022/09/19 03:15:06;;;;;;;0.47;0.47;;;;;;;10.49;87.81;99406.84;5092280;28;20199;-61
2022/09/19 03:17:38;;;;;;;0.50;0.50;;;;;;;10.49;87.49;99404.28;5091273;28;20206;-62
2022/09/19 03:20:11;;;;;;;0.40;0.40;;;;;;;10.53;86.53;99405.03;5092639;28;20276;-61
2022/09/19 03:22:38;;;;;;;0.60;0.60;;;;;;;10.54;86.51;99404.97;5092569;28;20223;-61
2022/09/19 03:25:06;;;;;;;0.50;0.50;;;;;;;10.59;86.54;99402.28;5092652;28;20222;-62
2022/09/19 03:27:33;;;;;;;0.40;0.40;;;;;;;10.64;86.31;99402.13;5091741;28;20560;-61
2022/09/19 03:29:59;;;;;;;0.60;0.60;;;;;;;10.68;86.56;99403.72;5088910;28;20195;-61
2022/09/19 03:32:27;;;;;;;0.50;0.50;;;;;;;10.69;85.78;99405.41;5091996;28;20671;-62
2022/09/19 03:34:55;;;;;;;0.63;0.63;;;;;;;10.62;85.00;99393.66;5092817;28;20196;-62
2022/09/19 03:37:22;;;;;;;0.40;0.40;;;;;;;10.71;85.23;99395.94;5091972;28;20238;-62
2022/09/19 03:39:49;;;;;;;0.40;0.40;;;;;;;10.84;85.26;99407.50;5092338;28;20748;-61
2022/09/19 03:42:18;;;;;;;0.60;0.60;;;;;;;10.88;85.30;99398.81;5091285;28;20218;-62
2022/09/19 03:44:44;;;;;;;0.40;0.40;;;;;;;10.99;84.35;99399.31;5091749;28;20200;-62
2022/09/19 03:47:11;;;;;;;0.40;0.40;;;;;;;11.05;83.98;99404.22;5091988;28;20196;-62
2022/09/19 03:49:38;;;;;;;0.50;0.50;;;;;;;11.06;84.04;99403.34;5091968;28;20203;-62
2022/09/19 03:52:06;;;;;;;0.40;0.40;;;;;;;11.12;82.50;99407.44;5090759;28;20203;-62
2022/09/19 03:54:34;;;;;;;0.40;0.40;;;;;;;11.21;82.85;99405.41;5090027;28;20264;-63
2022/09/19 03:57:00;;;;;;;0.40;0.40;;;;;;;11.22;82.38;99396.84;5089964;28;20206;-62
2022/09/19 03:59:27;;;;;;;0.43;0.43;;;;;;;11.30;82.36;99410.28;5091603;28;20200;-61
2022/09/19 04:01:55;;;;;;;0.40;0.40;;;;;;;11.37;81.94;99411.72;5091669;28;20199;-61
2022/09/19 04:04:22;;;;;;;0.50;0.50;;;;;;;11.43;82.02;99411.53;5091606;28;20269;-62
2022/09/19 04:06:49;;;;;;;0.50;0.50;;;;;;;11.46;82.06;99411.44;5091914;28;20203;-62
2022/09/19 04:09:17;;;;;;;0.53;0.53;;;;;;;11.51;81.50;99412.13;5091405;28;20618;-61
2022/09/19 04:11:44;;;;;;;0.50;0.50;;;;;;;11.53;80.95;99420.59;5091865;28;20694;-61
2022/09/19 04:14:10;;;;;;;0.40;0.40;;;;;;;11.56;81.57;99417.09;5089655;28;20591;-61
2022/09/19 04:16:37;;;;;;;0.40;0.40;;;;;;;11.58;81.21;99416.16;5091757;28;20206;-63
2022/09/19 04:19:10;;;;;;;0.40;0.40;;;;;;;11.50;80.81;99394.22;5089716;28;20203;-61
2022/09/19 04:21:38;;;;;;;0.40;0.40;;;;;;;11.60;81.34;99409.22;5091700;28;20746;-62
2022/09/19 04:24:06;;;;;;;0.57;0.57;;;;;;;11.61;81.32;99415.22;5090905;28;20218;-62
2022/09/19 04:26:34;;;;;;;0.50;0.50;;;;;;;11.62;81.88;99410.91;5090698;28;20272;-62
2022/09/19 04:29:02;;;;;;;0.40;0.40;;;;;;;11.62;82.02;99410.91;5091365;28;20199;-62
2022/09/19 04:31:35;;;;;;;0.50;0.50;;;;;;;11.63;82.82;99410.88;5091107;28;20557;-62
2022/09/19 04:34:02;;;;;;;0.50;0.50;;;;;;;11.60;82.36;99418.66;5091021;28;20286;-62
2022/09/19 04:36:31;;;;;;;0.50;0.50;;;;;;;11.59;81.91;99415.28;5091052;28;20204;-61
2022/09/19 04:38:58;;;;;;;0.40;0.40;;;;;;;11.63;81.49;99415.16;5091259;28;20252;-62
2022/09/19 04:41:25;;;;;;;0.50;0.50;;;;;;;11.66;82.43;99422.75;5089855;28;20738;-62
2022/09/19 04:43:54;;;;;;;0.50;0.50;;;;;;;11.66;81.65;99409.94;5089071;28;20272;-62
2022/09/19 04:46:21;;;;;;;0.50;0.50;;;;;;;11.79;81.04;99422.31;5086751;28;20203;-61
2022/09/19 04:48:48;;;;;;;0.40;0.40;;;;;;;11.85;80.58;99423.84;5086606;28;20319;-62
2022/09/19 04:51:15;;;;;;;0.50;0.50;;;;;;;11.96;80.51;99421.72;5088327;28;20294;-62
2022/09/19 04:53:42;;;;;;;0.40;0.40;;;;;;;12.09;79.73;99425.53;5087371;28;20242;-62
2022/09/19 04:56:10;;;;;;;0.40;0.40;;;;;;;12.26;78.75;99423.19;5087810;28;20206;-61
2022/09/19 04:58:40;;;;;;;0.43;0.43;;;;;;;12.36;78.14;99427.09;5083667;28;20231;-62
2022/09/19 05:01:09;;;;;;;0.50;0.50;;;;;;;12.44;78.23;99409.66;5084728;28;20672;-62
2022/09/19 05:03:36;;;;;;;0.50;0.50;;;;;;;12.71;77.65;99424.94;5089676;28;20219;-62
2022/09/19 05:06:04;;;;;;;0.40;0.40;;;;;;;12.78;77.57;99419.50;5089944;28;20229;-61
2022/09/19 05:08:32;;;;;;;0.40;0.40;;;;;;;12.88;78.39;99413.09;5090586;28;20200;-62
2022/09/19 05:11:01;;;;;;;0.40;0.40;;;;;;;13.20;77.76;99427.28;5090415;28;20227;-62
2022/09/19 05:13:29;;;;;;;0.43;0.43;;;;;;;13.41;76.19;99436.72;5089646;28;20234;-62
2022/09/19 05:15:57;;;;;;;0.50;0.50;;;;;;;13.62;76.01;99424.69;5090769;28;20199;-61
2022/09/19 05:18:25;;;;;;;0.50;0.50;;;;;;;13.90;74.44;99437.22;5090375;28;20209;-62
2022/09/19 05:20:54;;;;;;;0.47;0.47;;;;;;;14.12;73.87;99432.81;5090593;28;20294;-62
2022/09/19 05:23:22;;;;;;;0.50;0.50;;;;;;;14.36;72.72;99428.34;5090188;28;20207;-61
2022/09/19 05:25:53;;;;;;;0.40;0.40;;;;;;;14.63;72.02;99427.09;5090445;28;20191;-63
2022/09/19 05:28:21;;;;;;;0.40;0.40;;;;;;;14.76;69.68;99420.47;5090295;28;20233;-62
2022/09/19 05:30:53;;;;;;;0.40;0.40;;;;;;;15.05;67.95;99438.00;5090031;28;20199;-63
2022/09/19 05:33:26;;;;;;;0.30;0.30;;;;;;;15.27;67.05;99440.38;5090118;28;20264;-62
2022/09/19 05:35:55;;;;;;;0.40;0.40;;;;;;;15.50;66.06;99437.53;5090178;28;20151;-62
2022/09/19 05:38:22;;;;;;;0.50;0.50;;;;;;;15.50;64.30;99440.13;5089771;28;20222;-62
2022/09/19 05:40:51;;;;;;;;;;;;;;;15.69;66.47;99440.88;5090338;28;20195;-62
2022/09/19 05:43:18;;;;;;;0.40;0.40;;;;;;;15.82;67.60;99442.84;5088053;28;20246;-62
2022/09/19 05:45:45;;;;;;;0.50;0.50;;;;;;;15.85;67.10;99438.34;5089897;28;20443;-63
2022/09/19 05:48:11;;;;;;;0.50;0.50;;;;;;;16.04;66.95;99443.41;5088923;28;20194;-62
2022/09/19 05:50:38;;;;;;;0.50;0.50;;;;;;;16.24;66.87;99443.22;5088509;28;20210;-62
2022/09/19 05:55:51;;;;;;;0.40;0.40;;;;;;;16.36;66.04;99455.50;5090086;28;20207;-63
2022/09/19 05:58:18;;;;;;;0.40;0.40;;;;;;;16.42;66.20;99449.16;5089900;28;20241;-63
2022/09/19 06:00:44;;;;;;;0.40;0.40;;;;;;;16.55;65.85;99451.03;5090038;28;20236;-63
2022/09/19 06:03:16;;;;;;;0.50;0.50;;;;;;;16.48;65.01;99431.53;5089936;28;20628;-62
2022/09/19 06:05:45;;;;;;;0.40;0.40;;;;;;;16.58;65.67;99443.09;5090969;28;20194;-63
2022/09/19 06:08:13;;;;;;;0.43;0.43;;;;;;;16.79;65.08;99446.31;5089073;28;20199;-63
2022/09/19 06:10:42;;;;;;;0.50;0.50;;;;;;;16.93;64.38;99442.97;5088929;28;20199;-63
2022/09/19 06:13:12;;;;;;;0.50;0.50;;;;;;;17.04;66.41;99446.59;5091692;28;20239;-63
2022/09/19 06:15:40;;;;;;;0.40;0.40;;;;;;;17.17;62.42;99449.34;5092058;28;20200;-62
2022/09/19 06:18:09;;;;;;;0.40;0.40;;;;;;;17.36;63.02;99449.97;5093652;28;20196;-64
2022/09/19 06:20:36;;;;;;;0.50;0.50;;;;;;;17.50;61.02;99452.63;5094091;28;20199;-63
2022/09/19 06:23:06;;;;;;;0.40;0.40;;;;;;;17.69;60.40;99455.00;5093289;28;20219;-61
2022/09/19 06:25:35;;;;;;;0.40;0.40;;;;;;;17.86;58.06;99456.63;5092993;28;20256;-62
2022/09/19 06:28:05;;;;;;;0.53;0.53;;;;;;;18.09;57.62;99456.94;5092887;28;20207;-61
2022/09/19 06:30:33;;;;;;;0.40;0.40;;;;;;;18.28;56.38;99452.31;5092680;28;20196;-61
2022/09/19 06:33:00;;;;;;;0.40;0.40;;;;;;;18.51;54.52;99450.09;5093308;28;20199;-61
2022/09/19 06:35:27;;;;;;;0.50;0.50;;;;;;;18.62;53.89;99453.69;5092955;28;20196;-62
2022/09/19 06:37:59;;;;;;;0.40;0.40;;;;;;;18.68;53.01;99445.50;5092147;28;20556;-61
2022/09/19 06:40:26;;;;;;;0.40;0.40;;;;;;;18.81;53.38;99456.78;5091109;28;20239;-61
2022/09/19 06:43:01;;;;;;;0.50;0.50;;;;;;;18.80;52.94;99455.13;5091438;28;20207;-60
2022/09/19 06:45:29;;;;;;;0.40;0.40;;;;;;;18.89;52.71;99458.91;5091997;28;20289;-61
2022/09/19 06:47:58;;;;;;;0.50;0.50;;;;;;;18.99;52.70;99464.38;5091289;28;20283;-61
2022/09/19 06:50:25;;;;;;;0.40;0.40;;;;;;;19.21;53.51;99451.66;5090067;28;20263;-60
2022/09/19 06:52:52;;;;;;;0.50;0.50;;;;;;;19.35;52.39;99456.81;5091036;28;20211;-61
2022/09/19 06:55:19;;;;;;;0.50;0.50;;;;;;;19.54;50.78;99457.31;5089618;28;20658;-61
2022/09/19 06:57:54;;;;;;;0.50;0.50;;;;;;;19.66;50.61;99466.88;5091303;28;20212;-61
2022/09/19 07:00:24;;;;;;;0.40;0.40;;;;;;;19.79;50.73;99459.09;5092242;28;20723;-61
2022/09/19 07:02:53;;;;;;;0.30;0.30;;;;;;;19.96;51.42;99461.41;5090857;28;20200;-61
2022/09/19 07:05:20;;;;;;;0.33;0.33;;;;;;;20.03;49.77;99459.22;5088855;28;20200;-61
2022/09/19 07:07:51;;;;;;;0.33;0.33;;;;;;;20.27;47.63;99467.97;5090245;28;20823;-60
2022/09/19 07:10:19;;;;;;;0.30;0.30;;;;;;;20.42;48.60;99456.50;5092711;28;20202;-61
2022/09/19 07:12:51;;;;;;;0.30;0.30;;;;;;;20.46;50.31;99457.97;5089157;28;20234;-60
2022/09/19 07:15:18;;;;;;;0.20;0.20;;;;;;;20.54;48.76;99460.88;5089784;28;20200;-61
2022/09/19 07:17:48;;;;;;;0.40;0.40;;;;;;;20.64;48.62;99454.09;5090293;28;20214;-61
2022/09/19 07:20:15;;;;;;;0.50;0.50;;;;;;;20.71;50.16;99444.06;5091049;28;20214;-61
2022/09/19 07:22:42;;;;;;;0.40;0.40;;;;;;;20.73;52.83;99443.00;5090943;28;20205;-60
2022/09/19 07:25:09;;;;;;;0.30;0.30;;;;;;;20.86;52.67;99445.56;5092108;28;20690;-62
2022/09/19 07:27:36;;;;;;;0.40;0.40;;;;;;;21.02;50.97;99445.28;5092058;28;20217;-61
2022/09/19 07:30:04;;;;;;;0.40;0.40;;;;;;;21.09;52.05;99443.91;5090742;28;20203;-61
2022/09/19 07:32:32;;;;;;;0.20;0.20;;;;;;;21.16;52.26;99448.63;5088912;28;20256;-64
2022/09/19 07:35:00;;;;;;;0.30;0.30;;;;;;;21.25;50.67;99441.88;5091766;28;20301;-63
2022/09/19 07:37:27;;;;;;;0.37;0.37;;;;;;;21.11;49.54;99439.44;5090315;28;20252;-64
2022/09/19 07:39:54;;;;;;;0.20;0.20;;;;;;;20.65;51.54;99431.44;5092774;28;20207;-63
2022/09/19 07:42:21;;;;;;;0.30;0.30;;;;;;;20.77;52.23;99441.84;5093227;28;20203;-64
2022/09/19 07:44:48;;;;;;;0.30;0.30;;;;;;;20.95;52.40;99437.91;5092759;28;20221;-63
2022/09/19 07:47:29;;;;;;;0.40;0.40;;;;;;;21.19;50.92;99437.13;5092847;28;20561;-65
2022/09/19 07:49:57;;;;;;;0.40;0.40;;;;;;;21.20;50.92;99415.31;5090298;28;20277;-65
2022/09/19 07:52:26;;;;;;;0.30;0.30;;;;;;;21.40;50.76;99438.16;5092166;28;20199;-64
2022/09/19 07:54:52;;;;;;;0.20;0.20;;;;;;;21.66;50.85;99439.66;5092336;28;20232;-65
2022/09/19 07:57:19;;;;;;;0.30;0.30;;;;;;;21.45;49.53;99438.66;5086232;28;20587;-65
2022/09/19 07:59:47;;;;;;;0.30;0.30;;;;;;;20.96;50.66;99430.94;5092604;28;20198;-65
2022/09/19 08:02:15;;;;;;;0.50;0.50;;;;;;;21.09;51.28;99436.09;5092163;28;20768;-65
2022/09/19 08:04:41;;;;;;;0.30;0.30;;;;;;;21.25;49.98;99428.84;5087803;28;20751;-64
2022/09/19 08:07:08;;;;;;;0.30;0.30;;;;;;;21.51;49.58;99427.75;5091428;28;20203;-65
2022/09/19 08:09:36;;;;;;;0.30;0.30;;;;;;;21.60;48.83;99429.69;5092230;28;20287;-65
2022/09/19 08:12:04;;;;;;;0.27;0.27;;;;;;;21.60;48.32;99424.47;5091477;28;20199;-64
2022/09/19 08:14:31;;;;;;;0.27;0.27;;;;;;;21.82;47.44;99419.28;5092202;28;20195;-64
2022/09/19 08:16:58;;;;;;;0.40;0.40;;;;;;;22.06;47.27;99408.78;5092547;28;20223;-65
2022/09/19 08:19:25;;;;;;;0.30;0.30;;;;;;;22.32;45.41;99404.16;5092369;28;20623;-65
2022/09/19 08:21:52;;;;;;;0.30;0.30;;;;;;;22.35;45.35;99398.69;5092494;28;20196;-65
2022/09/19 08:24:20;;;;;;;0.20;0.20;;;;;;;22.52;43.81;99400.78;5092628;28;20927;-65
2022/09/19 08:26:48;;;;;;;0.30;0.30;;;;;;;22.46;46.87;99391.66;5090977;28;20200;-66
2022/09/19 08:29:15;;;;;;;0.40;0.40;;;;;;;22.71;43.75;99395.81;5091894;28;20204;-65
2022/09/19 08:31:42;;;;;;;0.30;0.30;;;;;;;22.79;42.99;99393.41;5092096;28;20204;-65
2022/09/19 08:34:09;;;;;;;0.30;0.30;;;;;;;22.99;43.98;99390.00;5092250;28;20210;-65
2022/09/19 08:36:36;;;;;;;0.20;0.20;;;;;;;23.17;42.54;99387.66;5092519;28;20727;-66
2022/09/19 08:39:03;;;;;;;0.30;0.30;;;;;;;23.25;41.08;99387.03;5088127;28;20579;-65
2022/09/19 08:41:52;;;;;;;0.20;0.20;;;;;;;23.18;41.03;99380.66;5089830;28;20234;-65
2022/09/19 08:44:30;;;;;;;0.20;0.20;;;;;;;23.20;41.31;99386.59;5089091;28;20679;-66
2022/09/19 08:47:06;;;;;;;0.20;0.20;;;;;;;23.11;38.80;99376.88;5090681;28;20659;-66
2022/09/19 08:49:38;;;;;;;0.30;0.30;;;;;;;22.95;39.72;99380.75;5092124;28;20556;-66
2022/09/19 08:52:11;;;;;;;0.30;0.30;;;;;;;23.01;40.15;99372.41;5091647;28;20282;-66
2022/09/19 08:54:41;;;;;;;0.30;0.30;;;;;;;22.96;39.12;99374.56;5088582;28;20207;-65
2022/09/19 08:57:16;;;;;;;0.30;0.30;;;;;;;23.21;37.26;99372.53;5091543;28;20272;-65
2022/09/19 08:59:46;;;;;;;0.30;0.30;;;;;;;23.10;39.59;99343.84;5087610;28;20203;-65
2022/09/19 09:02:26;;;;;;;0.30;0.30;;;;;;;23.13;40.65;99364.53;5089992;28;20294;-64
2022/09/19 09:04:54;;;;;;;0.30;0.30;;;;;;;22.49;37.78;99354.00;5090109;28;20718;-66
2022/09/19 09:07:35;;;;;;;0.30;0.30;;;;;;;22.13;37.48;99355.16;5093837;28;20649;-66
2022/09/19 09:10:18;;;;;;;0.27;0.27;;;;;;;22.20;39.04;99352.84;5089846;28;20272;-65
2022/09/19 09:12:56;;;;;;;0.30;0.30;;;;;;;22.49;37.36;99344.38;5089700;28;20309;-64
2022/09/19 09:15:30;;;;;;;0.20;0.20;;;;;;;22.67;39.73;99344.72;5085507;28;20232;-64
2022/09/19 09:18:14;;;;;;;0.30;0.30;;;;;;;22.92;39.56;99344.41;5088264;28;20206;-64
2022/09/19 09:20:49;;;;;;;0.30;0.30;;;;;;;23.26;40.35;99339.00;5089909;28;20203;-65
2022/09/19 09:23:21;;;;;;;0.20;0.20;;;;;;;23.41;38.15;99335.13;5089699;28;20203;-65
2022/09/19 09:25:49;;;;;;;0.20;0.20;;;;;;;23.47;37.50;99311.91;5089073;28;20223;-65
2022/09/19 09:28:26;;;;;;;0.30;0.30;;;;;;;23.61;41.45;99307.28;5090307;28;20541;-65
2022/09/19 09:31:12;;;;;;;0.30;0.30;;;;;;;23.86;38.78;99312.06;5086692;28;20587;-65
2022/09/19 09:33:46;;;;;;;0.30;0.30;;;;;;;23.52;38.74;99309.72;5084305;28;20811;-65
2022/09/19 09:36:23;;;;;;;0.20;0.20;;;;;;;22.85;38.73;99322.31;5088076;28;20602;-66
2022/09/19 09:38:55;;;;;;;0.30;0.30;;;;;;;22.95;40.50;99312.78;5088761;28;20211;-64
2022/09/19 09:41:45;;;;;;;0.20;0.20;;;;;;;22.43;39.38;99299.63;5085141;28;20288;-64
2022/09/19 09:44:32;;;;;;;0.30;0.30;;;;;;;22.47;39.41;99301.06;5089508;28;20219;-65
2022/09/19 09:47:07;;;;;;;0.20;0.20;;;;;;;22.37;38.57;99302.72;5086787;28;20621;-64
2022/09/19 09:49:34;;;;;;;0.20;0.20;;;;;;;22.17;38.29;99301.72;5087369;28;20200;-67
2022/09/19 09:52:09;;;;;;;0.30;0.30;;;;;;;22.24;38.66;99302.88;5088815;28;20221;-64
2022/09/19 09:57:43;;;;;;;0.30;0.30;;;;;;;22.67;38.65;99295.06;5088773;28;20207;-64
2022/09/19 10:05:56;;;;;;;0.27;0.27;;;;;;;23.02;34.07;99290.41;5087846;28;20241;-65
2022/09/19 10:08:28;;;;;;;0.30;0.30;;;;;;;23.07;34.97;99294.41;5086859;28;20207;-63
2022/09/19 10:11:05;;;;;;;0.30;0.30;;;;;;;23.17;35.32;99282.22;5088814;28;20199;-63
2022/09/19 10:13:39;;;;;;;0.30;0.30;;;;;;;23.15;37.94;99284.13;5088266;28;20258;-64
2022/09/19 10:16:08;;;;;;;0.30;0.30;;;;;;;23.20;38.16;99281.97;5087640;28;20207;-64
2022/09/19 10:18:43;;;;;;;0.20;0.20;;;;;;;22.88;38.65;99277.63;5088341;28;20235;-65
2022/09/19 10:21:10;;;;;;;0.30;0.30;;;;;;;22.99;38.67;99274.97;5088458;28;20674;-64
2022/09/19 10:23:37;;;;;;;0.20;0.20;;;;;;;23.07;37.27;99270.88;5088507;28;20210;-63
2022/09/19 10:26:07;;;;;;;0.20;0.20;;;;;;;23.16;39.50;99270.13;5085210;28;20219;-64
2022/09/19 10:28:40;;;;;;;0.30;0.30;;;;;;;23.20;37.19;99266.28;5088448;28;20303;-64
2022/09/19 10:31:23;;;;;;;0.23;0.23;;;;;;;23.35;40.24;99260.59;5086820;28;20199;-64
2022/09/19 10:33:52;;;;;;;0.30;0.30;;;;;;;23.38;38.70;99244.63;5085363;28;20242;-63
2022/09/19 10:36:21;;;;;;;0.33;0.33;;;;;;;23.41;37.68;99248.78;5087667;28;20290;-69
2022/09/19 10:38:58;;;;;;;0.20;0.20;;;;;;;23.43;37.30;99257.34;5086816;28;20444;-70
2022/09/19 10:41:27;;;;;;;0.20;0.20;;;;;;;23.65;36.61;99245.88;5089214;28;20195;-70
2022/09/19 10:43:56;;;;;;;0.30;0.30;;;;;;;23.79;36.59;99248.09;5088646;28;20207;-70
2022/09/19 10:46:27;;;;;;;0.20;0.20;;;;;;;23.70;35.79;99244.50;5089796;28;20199;-70
2022/09/19 10:48:57;;;;;;;0.20;0.20;;;;;;;23.50;35.12;99248.00;5089184;28;20199;-69
2022/09/19 10:51:29;;;;;;;0.30;0.30;;;;;;;23.55;35.77;99245.84;5088242;28;20629;-70
2022/09/19 10:53:57;;;;;;;0.40;0.40;;;;;;;23.35;34.11;99244.06;5093465;28;20199;-70
2022/09/19 10:56:26;;;;;;;0.30;0.30;;;;;;;23.16;34.12;99244.78;5089501;28;20207;-70
2022/09/19 10:59:03;;;;;;;0.30;0.30;;;;;;;22.94;32.68;99239.72;5091995;28;20648;-70
2022/09/19 11:01:31;;;;;;;0.30;0.30;;;;;;;22.92;33.07;99237.22;5090746;28;20209;-71
2022/09/19 11:04:02;;;;;;;0.30;0.30;;;;;;;22.84;34.62;99218.69;5092831;28;20667;-70
2022/09/19 11:06:30;;;;;;;0.30;0.30;;;;;;;22.96;33.78;99214.25;5090721;28;20199;-71
2022/09/19 11:08:57;;;;;;;0.30;0.30;;;;;;;23.13;34.70;99223.31;5093222;28;20203;-71
2022/09/19 11:11:37;;;;;;;0.30;0.30;;;;;;;23.13;34.75;99223.31;5090790;28;20203;-71
2022/09/19 11:14:18;;;;;;;0.30;0.30;;;;;;;22.88;35.39;99214.88;5092140;28;20249;-71
2022/09/19 11:17:03;;;;;;;0.30;0.30;;;;;;;22.79;37.96;99207.81;5093260;28;20202;-71
2022/09/19 11:19:48;;;;;;;0.30;0.30;;;;;;;22.86;35.34;99205.53;5089808;28;20694;-71
2022/09/19 11:22:28;;;;;;;0.27;0.27;;;;;;;22.87;35.13;99202.78;5091477;28;20574;-70
2022/09/19 11:25:03;;;;;;;0.30;0.30;;;;;;;22.76;34.05;99197.63;5089578;28;20215;-71
2022/09/19 11:27:56;;;;;;;0.30;0.30;;;;;;;22.90;34.98;99197.31;5093170;28;20214;-70
2022/09/19 11:30:25;;;;;;;0.30;0.30;;;;;;;22.83;34.05;99198.78;5086300;28;20195;-70
2022/09/19 11:33:34;;;;;;;0.30;0.30;;;;;;;23.02;34.61;99206.72;5093265;28;20223;-70
2022/09/19 11:36:09;;;;;;;0.30;0.30;;;;;;;23.04;34.58;99197.94;5092801;28;20203;-70
2022/09/19 11:38:47;;;;;;;0.30;0.30;;;;;;;22.94;34.41;99188.22;5093453;28;20569;-70
2022/09/19 11:41:26;;;;;;;0.30;0.30;;;;;;;22.96;34.27;99178.47;5093120;28;20716;-70
2022/09/19 11:44:07;;;;;;;0.30;0.30;;;;;;;23.10;34.10;99187.78;5093044;28;20257;-70
2022/09/19 11:46:43;;;;;;;0.20;0.20;;;;;;;23.21;32.84;99181.63;5092867;28;20223;-70
2022/09/19 11:49:51;;;;;;;0.20;0.20;;;;;;;23.16;31.95;99186.41;5093035;28;20194;-70
2022/09/19 11:52:32;;;;;;;0.30;0.30;;;;;;;23.13;30.27;99178.84;5092824;28;20204;-69
2022/09/19 11:55:18;;;;;;;0.20;0.20;;;;;;;23.16;31.74;99155.03;5091999;28;20200;-70
2022/09/19 11:57:55;;;;;;;0.37;0.37;;;;;;;23.19;30.76;99165.25;5092956;28;20562;-70
2022/09/19 12:00:25;;;;;;;0.27;0.27;;;;;;;23.26;34.82;99155.91;5092741;28;20195;-69
2022/09/19 12:03:24;;;;;;;0.20;0.20;;;;;;;23.17;33.24;99159.28;5092477;28;20249;-69
2022/09/19 12:06:08;;;;;;;0.30;0.30;;;;;;;23.27;33.92;99155.75;5068292;28;20714;-69
2022/09/19 12:08:50;;;;;;;0.30;0.30;;;;;;;23.32;32.92;99150.97;5090268;28;20583;-69
2022/09/19 12:11:20;;;;;;;0.30;0.30;;;;;;;23.43;33.48;99150.91;5091312;28;20245;-70